Time;durP1;ratioP1;P1;durP2;ratioP2;P2;SDS_P1;SDS_P2;PMS_P1;PMS_P2;Temp;Humidity;BMP_temperature;BMP_pressure;BME280_temperature;BME280_humidity;BME280_pressure;Samples;Min_cycle;Max_cycle;Signal;HPM_P1;HPM_P2
2022/05/07 07:28:25;;;;;;;32.78;20.50;;;;;;;;;;5792797;23;20074;-95
2022/05/07 17:15:03;;;;;;;16.15;12.73;;;;;;;;;;4948311;28;20097;-91
2022/05/07 17:17:29;;;;;;;14.77;11.75;;;;;;;;;;4977828;28;20042;-89
2022/05/07 17:19:54;;;;;;;16.58;13.80;;;;;;;;;;4977668;28;20031;-89
2022/05/07 17:22:20;;;;;;;15.15;13.30;;;;;;;;;;4958724;28;20473;-90
2022/05/07 17:24:46;;;;;;;13.63;11.75;;;;;;;;;;4950160;28;20031;-85
2022/05/07 17:27:12;;;;;;;12.15;10.38;;;;;;;;;;4965779;28;20524;-91
2022/05/07 17:29:38;;;;;;;11.93;9.60;;;;;;;;;;4968895;28;20026;-90
2022/05/07 17:32:04;;;;;;;11.43;9.57;;;;;;;;;;4959711;28;20027;-85
2022/05/07 17:34:30;;;;;;;11.18;9.93;;;;;;;;;;4977122;28;20418;-89
2022/05/07 17:36:55;;;;;;;11.80;10.02;;;;;;;;;;4976752;28;20113;-93
2022/05/07 17:39:21;;;;;;;11.30;10.10;;;;;;;;;;4959756;28;20054;-88
2022/05/07 17:41:48;;;;;;;12.70;9.73;;;;;;;;;;4959443;28;20046;-89
2022/05/07 17:44:13;;;;;;;12.95;9.40;;;;;;;;;;4959902;28;20046;-88
2022/05/07 17:46:39;;;;;;;13.48;9.85;;;;;;;;;;4959581;28;20405;-87
2022/05/07 17:49:16;;;;;;;12.68;9.70;;;;;;;;;;4959847;28;20023;-89
2022/05/07 17:51:43;;;;;;;12.35;8.63;;;;;;;;;;4949235;28;20117;-88
2022/05/07 17:54:09;;;;;;;13.20;9.48;;;;;;;;;;4942938;29;20505;-87
2022/05/07 17:56:35;;;;;;;11.13;9.68;;;;;;;;;;4957173;28;20032;-90
2022/05/07 17:59:01;;;;;;;11.35;8.77;;;;;;;;;;4957134;29;20035;-87
2022/05/07 18:01:27;;;;;;;10.10;9.10;;;;;;;;;;4957066;29;20485;-87
2022/05/07 18:03:53;;;;;;;11.60;9.20;;;;;;;;;;4939817;29;20113;-87
2022/05/07 18:06:18;;;;;;;11.77;9.35;;;;;;;;;;4956893;29;20053;-88
2022/05/07 18:08:44;;;;;;;10.10;8.68;;;;;;;;;;4956834;29;20533;-87
2022/05/07 18:11:10;;;;;;;13.57;9.40;;;;;;;;;;4970673;28;20027;-96
2022/05/07 18:13:36;;;;;;;12.85;10.40;;;;;;;;;;4973504;28;20067;-91
2022/05/07 18:16:01;;;;;;;11.57;9.73;;;;;;;;;;4958703;28;20085;-89
2022/05/07 18:18:27;;;;;;;14.70;10.15;;;;;;;;;;4976688;28;20027;-88
2022/05/07 18:20:54;;;;;;;12.02;9.23;;;;;;;;;;4958926;28;20038;-89
2022/05/07 18:23:20;;;;;;;9.93;8.85;;;;;;;;;;4976160;28;20030;-88
2022/05/07 18:25:45;;;;;;;10.52;9.38;;;;;;;;;;4958719;28;20126;-88
2022/05/07 18:28:11;;;;;;;11.80;9.40;;;;;;;;;;4975733;28;20042;-88
2022/05/07 18:30:37;;;;;;;12.25;9.85;;;;;;;;;;4976042;28;20030;-87
2022/05/07 18:33:02;;;;;;;10.15;9.05;;;;;;;;;;4975685;28;20027;-87
2022/05/07 18:35:28;;;;;;;12.63;9.55;;;;;;;;;;4958301;28;20045;-87
2022/05/07 18:42:47;;;;;;;14.05;10.13;;;;;;;;;;4975773;28;20042;-88
2022/05/07 18:43:42;;;;;;;12.00;9.13;;;;;;;;;;4975649;28;20031;-89
2022/05/07 18:46:08;;;;;;;9.98;8.88;;;;;;;;;;4958125;28;20026;-89
2022/05/07 18:48:35;;;;;;;11.30;9.68;;;;;;;;;;4958531;28;20045;-89
2022/05/07 18:51:01;;;;;;;10.18;8.95;;;;;;;;;;4958152;28;20023;-89
2022/05/07 18:53:27;;;;;;;14.57;9.30;;;;;;;;;;4975708;28;20019;-89
2022/05/07 18:58:39;;;;;;;11.15;9.73;;;;;;;;;;4975906;28;20394;-86
2022/05/07 19:01:05;;;;;;;11.90;10.45;;;;;;;;;;4975281;28;20027;-87
2022/05/07 19:03:31;;;;;;;17.40;14.30;;;;;;;;;;4957793;28;20030;-88
2022/05/07 19:05:57;;;;;;;12.65;11.35;;;;;;;;;;4957947;28;20073;-88
2022/05/07 19:08:23;;;;;;;12.90;10.88;;;;;;;;;;4957907;28;20034;-87
2022/05/07 19:10:50;;;;;;;12.63;10.95;;;;;;;;;;4957620;28;20023;-90
2022/05/07 19:13:17;;;;;;;12.25;10.52;;;;;;;;;;4958341;28;20037;-91
2022/05/07 19:15:43;;;;;;;14.13;11.00;;;;;;;;;;4958272;28;20067;-90
2022/05/07 19:18:09;;;;;;;12.13;10.77;;;;;;;;;;4975700;28;20094;-90
2022/05/07 19:20:34;;;;;;;10.63;9.50;;;;;;;;;;4958228;28;20022;-90
2022/05/07 19:23:00;;;;;;;11.68;9.30;;;;;;;;;;4958522;28;20401;-91
2022/05/07 19:25:28;;;;;;;12.32;10.27;;;;;;;;;;4958318;28;20033;-91
2022/05/07 19:27:54;;;;;;;12.23;9.98;;;;;;;;;;4958626;28;20050;-91
2022/05/07 19:30:20;;;;;;;13.07;10.65;;;;;;;;;;4958370;28;20490;-91
2022/05/07 19:32:49;;;;;;;12.18;10.20;;;;;;;;;;4958337;28;20122;-90
2022/05/07 19:35:14;;;;;;;15.60;10.43;;;;;;;;;;4958122;28;20031;-88
2022/05/07 19:37:41;;;;;;;12.65;9.55;;;;;;;;;;4958080;28;20023;-88
2022/05/07 19:40:08;;;;;;;12.77;9.40;;;;;;;;;;4974629;28;20400;-87
2022/05/07 19:42:38;;;;;;;11.35;9.15;;;;;;;;;;4974817;28;20034;-86
2022/05/07 19:45:05;;;;;;;11.23;9.50;;;;;;;;;;4974837;28;20022;-88
2022/05/07 19:47:32;;;;;;;8.93;8.00;;;;;;;;;;4974544;28;20027;-87
2022/05/07 19:49:58;;;;;;;9.07;7.95;;;;;;;;;;4975320;28;20031;-90
2022/05/07 19:52:23;;;;;;;9.48;8.48;;;;;;;;;;4957810;28;20478;-90
2022/05/07 19:54:49;;;;;;;10.57;7.68;;;;;;;;;;4958081;28;20118;-90
2022/05/07 19:57:17;;;;;;;11.75;8.27;;;;;;;;;;4974947;28;20054;-89
2022/05/07 19:59:42;;;;;;;10.10;7.82;;;;;;;;;;4946903;28;20043;-90
2022/05/07 20:02:09;;;;;;;11.30;7.70;;;;;;;;;;4959602;29;20031;-89
2022/05/07 20:04:36;;;;;;;8.13;7.30;;;;;;;;;;4978309;28;20022;-92
2022/05/07 20:07:04;;;;;;;9.75;7.93;;;;;;;;;;4993448;28;20019;-89
2022/05/07 20:09:30;;;;;;;11.98;9.10;;;;;;;;;;4961738;28;20500;-89
2022/05/07 20:11:56;;;;;;;11.48;9.05;;;;;;;;;;4961160;28;20094;-85
2022/05/07 20:14:25;;;;;;;10.90;9.18;;;;;;;;;;4978827;28;20086;-89
2022/05/07 20:16:52;;;;;;;10.60;8.45;;;;;;;;;;4963235;28;20504;-88
2022/05/07 20:19:17;;;;;;;10.25;9.00;;;;;;;;;;4942163;29;20389;-90
2022/05/07 20:21:49;;;;;;;11.10;8.07;;;;;;;;;;4958577;28;20040;-90
2022/05/07 20:24:27;;;;;;;10.50;8.70;;;;;;;;;;4959165;28;20023;-90
2022/05/07 20:26:54;;;;;;;11.30;9.20;;;;;;;;;;4939645;29;20039;-90
2022/05/07 20:29:21;;;;;;;12.68;10.57;;;;;;;;;;4959388;28;20030;-88
2022/05/07 20:31:46;;;;;;;10.35;9.00;;;;;;;;;;4958391;28;20111;-88
2022/05/07 20:34:13;;;;;;;11.77;8.88;;;;;;;;;;4975518;28;20122;-86
2022/05/07 20:36:39;;;;;;;13.30;11.90;;;;;;;;;;4978212;28;20029;-86
2022/05/07 20:39:04;;;;;;;16.92;13.57;;;;;;;;;;4978153;28;20027;-89
2022/05/07 20:41:30;;;;;;;16.77;12.55;;;;;;;;;;4959597;28;20026;-88
2022/05/07 20:46:40;;;;;;;14.15;11.85;;;;;;;;;;4978206;28;20042;-90
2022/05/07 20:49:06;;;;;;;15.32;11.68;;;;;;;;;;4960545;28;20439;-88
2022/05/07 20:51:32;;;;;;;12.05;10.38;;;;;;;;;;4960535;28;20050;-90
2022/05/07 20:54:07;;;;;;;10.98;8.82;;;;;;;;;;4978059;28;20058;-89
2022/05/07 20:56:36;;;;;;;9.00;7.07;;;;;;;;;;4960536;28;20022;-89
2022/05/07 20:59:02;;;;;;;7.38;6.63;;;;;;;;;;4960598;28;20030;-88
2022/05/07 21:01:27;;;;;;;6.78;5.60;;;;;;;;;;4977624;28;20030;-89
2022/05/07 21:03:53;;;;;;;6.72;5.85;;;;;;;;;;4978007;28;20474;-89
2022/05/07 21:06:18;;;;;;;7.38;5.20;;;;;;;;;;4976959;28;20086;-90
2022/05/07 21:08:43;;;;;;;4.88;4.32;;;;;;;;;;4958333;29;20086;-90
2022/05/07 21:11:09;;;;;;;4.55;3.60;;;;;;;;;;4941221;29;20027;-89
2022/05/07 21:13:37;;;;;;;3.63;3.13;;;;;;;;;;4941247;29;20087;-90
2022/05/07 21:16:05;;;;;;;4.20;3.80;;;;;;;;;;4941034;29;20070;-90
2022/05/07 21:18:32;;;;;;;3.50;3.13;;;;;;;;;;4941103;29;20065;-90
2022/05/07 21:21:00;;;;;;;3.80;3.38;;;;;;;;;;4941222;29;20035;-91
2022/05/07 21:23:26;;;;;;;4.32;3.75;;;;;;;;;;4958549;29;20031;-88
2022/05/07 21:28:36;;;;;;;7.32;5.60;;;;;;;;;;4960656;28;20081;-90
2022/05/07 21:31:02;;;;;;;5.05;4.55;;;;;;;;;;4940721;29;20075;-90
